createdAt,value
2019-01-16T00:02:03.360Z,89.94
2019-01-16T00:04:33.530Z,89.08
2019-01-16T00:07:06.546Z,88.81
2019-01-16T00:09:54.907Z,88.42
2019-01-16T00:12:30.723Z,88.86
2019-01-16T00:15:06.890Z,89.45
2019-01-16T00:17:42.824Z,89.39
2019-01-16T00:20:16.261Z,89.79
2019-01-16T00:23:04.435Z,89.02
2019-01-16T00:25:49.163Z,89.48
2019-01-16T00:28:19.224Z,90.40
2019-01-16T00:30:52.064Z,90.20
2019-01-16T00:33:22.147Z,89.48
2019-01-16T00:35:58.035Z,89.75
2019-01-16T00:38:36.883Z,89.98
2019-01-16T00:41:09.778Z,90.14
2019-01-16T00:43:42.814Z,89.00
2019-01-16T00:46:15.951Z,89.88
2019-01-16T00:49:02.222Z,89.08
2019-01-16T00:51:32.410Z,89.70
2019-01-16T00:54:11.238Z,90.12
2019-01-16T00:56:41.407Z,90.81
2019-01-16T00:59:16.935Z,90.92
2019-01-16T01:02:03.347Z,91.37
2019-01-16T01:04:33.412Z,91.77
2019-01-16T01:07:20.005Z,92.17
2019-01-16T01:09:52.495Z,92.72
2019-01-16T01:12:22.616Z,92.63
2019-01-16T01:14:52.771Z,92.36
2019-01-16T01:17:22.908Z,92.15
2019-01-16T01:20:10.936Z,92.36
2019-01-16T01:22:41.070Z,92.10
2019-01-16T01:25:26.470Z,91.74
2019-01-16T01:27:56.535Z,92.10
2019-01-16T01:30:29.265Z,91.76
2019-01-16T01:33:05.066Z,91.55
2019-01-16T01:35:40.958Z,91.60
2019-01-16T01:38:22.466Z,90.67
2019-01-16T01:41:10.385Z,90.10
2019-01-16T01:43:40.472Z,90.66
2019-01-16T01:46:25.442Z,91.12
2019-01-16T01:49:01.543Z,91.33
2019-01-16T01:51:31.604Z,91.03
2019-01-16T01:54:13.915Z,90.99
2019-01-16T01:56:43.976Z,90.98
2019-01-16T01:59:29.151Z,90.35
2019-01-16T02:02:05.184Z,90.26
2019-01-16T02:04:52.887Z,90.67
2019-01-16T02:07:23.026Z,89.90
2019-01-16T02:09:55.763Z,89.54
2019-01-16T02:12:28.657Z,89.95
2019-01-16T02:15:15.325Z,89.96
2019-01-16T02:17:57.162Z,89.55
2019-01-16T02:20:43.942Z,89.30
2019-01-16T02:23:32.255Z,89.24
2019-01-16T02:26:17.976Z,88.74
2019-01-16T02:29:02.999Z,88.90
2019-01-16T02:31:33.061Z,88.62
2019-01-16T02:34:03.126Z,89.01
2019-01-16T02:36:33.241Z,88.28
2019-01-16T02:39:21.112Z,87.46
2019-01-16T02:41:57.232Z,87.19
2019-01-16T02:44:27.282Z,87.29
2019-01-16T02:46:59.759Z,86.89
2019-01-16T02:49:32.709Z,87.06
2019-01-16T02:52:18.640Z,86.11
2019-01-16T02:54:48.741Z,85.51
2019-01-16T02:57:24.599Z,85.87
2019-01-16T03:00:00.924Z,85.94
2019-01-16T03:02:37.061Z,86.44
2019-01-16T03:05:09.927Z,86.15
2019-01-16T03:07:40.131Z,85.80
2019-01-16T03:10:10.629Z,85.79
2019-01-16T03:12:40.715Z,85.95
2019-01-16T03:15:28.975Z,85.78
2019-01-16T03:18:10.683Z,85.07
2019-01-16T03:20:40.769Z,84.53
2019-01-16T03:23:22.291Z,85.01
2019-01-16T03:25:52.353Z,85.00
2019-01-16T03:28:30.889Z,85.66
2019-01-16T03:31:12.814Z,85.30
2019-01-16T03:33:54.464Z,84.80
2019-01-16T03:36:30.299Z,85.49
2019-01-16T03:39:00.386Z,85.66
2019-01-16T03:41:32.851Z,85.12
2019-01-16T03:44:08.656Z,85.19
2019-01-16T03:46:44.684Z,84.91
2019-01-16T03:49:30.476Z,85.10
2019-01-16T03:52:06.625Z,84.76
2019-01-16T03:54:36.710Z,85.13
2019-01-16T03:57:21.633Z,85.13
2019-01-16T04:00:07.917Z,85.36
2019-01-16T04:02:40.684Z,85.56
2019-01-16T04:05:10.883Z,85.19
2019-01-16T04:07:50.110Z,84.90
2019-01-16T04:10:20.234Z,85.22
2019-01-16T04:12:50.294Z,85.19
2019-01-16T04:15:32.270Z,84.39
2019-01-16T04:18:20.084Z,84.18
2019-01-16T04:20:56.027Z,82.57
2019-01-16T04:23:26.093Z,84.53
2019-01-16T04:25:56.150Z,84.21
2019-01-16T04:28:26.237Z,84.54
2019-01-16T04:31:05.341Z,83.81
2019-01-16T04:33:47.504Z,83.84
2019-01-16T04:36:29.599Z,83.76
2019-01-16T04:39:17.551Z,83.53
2019-01-16T04:41:53.232Z,82.76
2019-01-16T04:44:41.071Z,82.59
2019-01-16T04:47:20.013Z,82.37
2019-01-16T04:50:06.119Z,83.11
2019-01-16T04:52:44.969Z,81.97
2019-01-16T04:55:15.124Z,82.82
2019-01-16T04:57:48.154Z,82.85
2019-01-16T05:00:27.359Z,83.41
2019-01-16T05:03:12.264Z,82.79
2019-01-16T05:05:45.605Z,82.50
2019-01-16T05:08:31.811Z,82.22
2019-01-16T05:11:04.560Z,81.75
2019-01-16T05:13:50.743Z,81.12
2019-01-16T05:16:20.830Z,81.43
2019-01-16T05:18:50.898Z,80.92
2019-01-16T05:21:27.027Z,81.03
2019-01-16T05:23:57.088Z,80.30
2019-01-16T05:26:27.823Z,80.03
2019-01-16T05:29:00.860Z,80.48
2019-01-16T05:31:42.939Z,80.70
2019-01-16T05:34:13.027Z,80.55
2019-01-16T05:36:54.796Z,81.04
2019-01-16T05:39:24.911Z,81.23
2019-01-16T05:42:11.205Z,80.77
2019-01-16T05:44:49.823Z,81.14
2019-01-16T05:47:35.642Z,81.14
2019-01-16T05:50:21.583Z,81.52
2019-01-16T05:52:51.715Z,81.50
2019-01-16T05:55:27.625Z,82.33
2019-01-16T05:57:57.682Z,81.14
2019-01-16T06:00:42.419Z,81.09
2019-01-16T06:03:27.484Z,81.66
2019-01-16T06:06:06.233Z,81.92
2019-01-16T06:08:52.512Z,82.77
2019-01-16T06:11:34.417Z,81.84
2019-01-16T06:14:20.346Z,81.10
2019-01-16T06:16:56.448Z,81.39
2019-01-16T06:19:35.467Z,82.56
2019-01-16T06:22:08.123Z,81.52
2019-01-16T06:24:40.864Z,81.44
2019-01-16T06:27:19.575Z,80.99
2019-01-16T06:29:52.601Z,81.32
2019-01-16T06:32:28.262Z,81.42
2019-01-16T06:35:04.379Z,80.54
2019-01-16T06:37:50.570Z,80.19
2019-01-16T06:40:32.412Z,80.88
2019-01-16T06:43:08.281Z,80.74
2019-01-16T06:45:38.346Z,81.06
2019-01-16T06:48:08.470Z,81.40
2019-01-16T06:50:38.560Z,81.36
2019-01-16T06:53:08.759Z,81.43
2019-01-16T06:55:54.537Z,81.45
2019-01-16T06:58:24.603Z,81.45
2019-01-16T07:00:57.118Z,81.32
2019-01-16T07:03:30.262Z,81.89
2019-01-16T07:06:05.835Z,81.83
2019-01-16T07:08:41.772Z,81.81
2019-01-16T07:11:14.790Z,82.51
2019-01-16T07:13:44.918Z,82.21
2019-01-16T07:16:24.417Z,82.43
2019-01-16T07:19:06.108Z,82.66
2019-01-16T07:21:38.959Z,80.50
2019-01-16T07:24:11.537Z,79.95
2019-01-16T07:26:57.479Z,80.93
2019-01-16T07:29:33.729Z,80.68
2019-01-16T07:32:12.866Z,80.82
2019-01-16T07:34:45.383Z,81.52
2019-01-16T07:37:24.533Z,81.32
2019-01-16T07:40:06.292Z,82.21
2019-01-16T07:42:46.663Z,82.56
2019-01-16T07:45:28.802Z,81.70
2019-01-16T07:48:07.491Z,81.97
2019-01-16T07:50:37.573Z,82.40
2019-01-16T07:53:07.860Z,81.50
2019-01-16T07:55:37.952Z,81.21
2019-01-16T07:58:08.011Z,81.76
2019-01-16T08:00:38.073Z,81.64
2019-01-16T08:03:08.161Z,81.60
2019-01-16T08:05:38.225Z,81.84
2019-01-16T08:08:14.170Z,81.28
2019-01-16T08:10:46.890Z,81.15
2019-01-16T08:13:16.961Z,81.41
2019-01-16T08:15:52.934Z,81.33
2019-01-16T08:18:28.784Z,81.83
2019-01-16T08:21:07.659Z,81.35
2019-01-16T08:23:40.719Z,82.08
2019-01-16T08:26:26.940Z,82.70
2019-01-16T08:29:02.758Z,81.51
2019-01-16T08:31:35.626Z,81.76
2019-01-16T08:34:11.809Z,81.07
2019-01-16T08:36:44.946Z,81.14
2019-01-16T08:39:17.502Z,82.03
2019-01-16T08:41:47.633Z,81.28
2019-01-16T08:44:33.847Z,81.43
2019-01-16T08:47:03.915Z,80.59
2019-01-16T08:49:40.192Z,80.20
2019-01-16T08:52:10.252Z,80.00
2019-01-16T08:54:56.287Z,80.82
2019-01-16T08:57:35.182Z,80.06
2019-01-16T09:00:08.726Z,80.41
2019-01-16T09:02:47.943Z,83.49
2019-01-16T09:05:18.781Z,79.88
2019-01-16T09:08:00.951Z,81.81
2019-01-16T09:10:49.764Z,78.70
2019-01-16T09:13:19.828Z,79.19
2019-01-16T09:15:52.704Z,79.98
2019-01-16T09:18:28.786Z,79.63
2019-01-16T09:21:01.567Z,79.93
2019-01-16T09:23:37.395Z,79.35
2019-01-16T09:26:13.641Z,79.84
2019-01-16T09:28:59.375Z,79.99
2019-01-16T09:31:29.478Z,79.67
2019-01-16T09:34:14.059Z,79.29
2019-01-16T09:36:47.197Z,80.97
2019-01-16T09:39:19.669Z,77.46
2019-01-16T09:41:49.799Z,77.77
2019-01-16T09:44:35.895Z,78.00
2019-01-16T09:47:05.963Z,78.43
2019-01-16T09:49:41.788Z,77.56
2019-01-16T09:52:17.579Z,77.17
2019-01-16T09:54:47.671Z,77.85
2019-01-16T09:57:17.799Z,76.88
2019-01-16T10:00:03.523Z,77.71
2019-01-16T10:02:49.639Z,77.43
2019-01-16T10:05:28.335Z,77.83
2019-01-16T10:07:58.462Z,78.37
2019-01-16T10:10:28.523Z,77.67
2019-01-16T10:12:58.614Z,78.35
2019-01-16T10:15:28.676Z,78.10
2019-01-16T10:18:04.745Z,77.41
2019-01-16T10:20:46.039Z,77.27
2019-01-16T10:23:18.169Z,77.94
2019-01-16T10:25:59.955Z,76.86
2019-01-16T10:28:42.074Z,77.19
2019-01-16T10:31:28.415Z,77.04
2019-01-16T10:33:58.579Z,77.31
2019-01-16T10:36:37.774Z,75.45
2019-01-16T10:39:21.226Z,76.19
2019-01-16T10:42:07.363Z,77.25
2019-01-16T10:44:49.270Z,76.37
2019-01-16T10:47:25.416Z,77.00
2019-01-16T10:49:58.010Z,76.81
2019-01-16T10:52:28.066Z,75.50
2019-01-16T10:55:01.100Z,76.12
2019-01-16T10:57:34.190Z,76.31
2019-01-16T11:00:10.210Z,75.55
2019-01-16T11:02:43.115Z,75.98
2019-01-16T11:05:28.506Z,75.52
2019-01-16T11:08:04.150Z,75.26
2019-01-16T11:10:50.177Z,75.10
2019-01-16T11:13:23.049Z,75.05
2019-01-16T11:15:58.803Z,75.74
2019-01-16T11:18:34.692Z,76.16
2019-01-16T11:21:22.903Z,76.42
2019-01-16T11:24:09.695Z,76.21
2019-01-16T11:26:49.018Z,76.56
2019-01-16T11:29:19.127Z,76.12
2019-01-16T11:31:57.729Z,76.06
2019-01-16T11:34:43.966Z,75.31
2019-01-16T11:37:29.690Z,75.83
2019-01-16T11:40:08.591Z,75.96
2019-01-16T11:42:54.554Z,74.62
2019-01-16T11:45:27.365Z,74.51
2019-01-16T11:48:04.096Z,74.21
2019-01-16T11:50:40.936Z,75.11
2019-01-16T11:53:26.650Z,74.69
2019-01-16T11:55:56.730Z,72.88
2019-01-16T11:58:29.689Z,73.86
2019-01-16T12:01:05.974Z,73.13
2019-01-16T12:03:48.269Z,73.48
2019-01-16T12:06:33.609Z,72.65
2019-01-16T12:09:12.532Z,73.09
2019-01-16T12:11:45.721Z,73.54
2019-01-16T12:14:24.602Z,73.73
2019-01-16T12:16:57.549Z,73.55
2019-01-16T12:19:33.438Z,73.58
2019-01-16T12:22:06.394Z,72.83
2019-01-16T12:24:36.452Z,73.34
2019-01-16T12:27:06.747Z,73.11
2019-01-16T12:29:36.918Z,73.28
2019-01-16T12:32:25.326Z,73.38
2019-01-16T12:34:58.243Z,73.58
2019-01-16T12:37:28.393Z,73.50
2019-01-16T12:40:14.766Z,73.68
2019-01-16T12:42:50.563Z,73.62
2019-01-16T12:45:20.818Z,73.55
2019-01-16T12:48:06.765Z,72.55
2019-01-16T12:50:39.965Z,73.16
2019-01-16T12:53:10.094Z,74.03
2019-01-16T12:55:49.955Z,72.92
2019-01-16T12:58:20.012Z,73.54
2019-01-16T13:00:52.755Z,72.19
2019-01-16T13:03:22.838Z,72.87
2019-01-16T13:05:53.008Z,73.43
2019-01-16T13:08:40.767Z,73.45
2019-01-16T13:11:19.874Z,73.19
2019-01-16T13:13:55.734Z,73.15
2019-01-16T13:16:31.525Z,73.99
2019-01-16T13:19:20.731Z,73.14
2019-01-16T13:21:50.778Z,72.50
2019-01-16T13:24:20.904Z,72.50
2019-01-16T13:27:07.120Z,72.24
2019-01-16T13:29:40.163Z,72.96
2019-01-16T13:32:25.561Z,72.85
2019-01-16T13:34:55.639Z,71.76
2019-01-16T13:37:34.264Z,72.03
2019-01-16T13:40:07.446Z,71.93
2019-01-16T13:42:37.518Z,72.19
2019-01-16T13:45:09.225Z,71.35
2019-01-16T13:47:39.366Z,72.13
2019-01-16T13:50:21.512Z,72.21
2019-01-16T13:53:03.456Z,72.17
2019-01-16T13:55:48.787Z,72.10
2019-01-16T13:58:43.604Z,72.19
2019-01-16T14:01:13.693Z,72.40
2019-01-16T14:03:49.890Z,73.22
2019-01-16T14:06:35.751Z,72.92
2019-01-16T14:09:23.441Z,72.74
2019-01-16T14:11:55.942Z,71.65
2019-01-16T14:14:40.850Z,71.27
2019-01-16T14:17:19.906Z,71.65
2019-01-16T14:20:07.967Z,71.89
2019-01-16T14:22:40.830Z,72.15
2019-01-16T14:25:25.820Z,71.59
2019-01-16T14:27:55.980Z,71.17
2019-01-16T14:30:44.303Z,71.53
2019-01-16T14:33:23.380Z,71.25
2019-01-16T14:35:53.464Z,71.40
2019-01-16T14:38:35.291Z,71.62
2019-01-16T14:41:21.314Z,72.06
2019-01-16T14:43:51.750Z,72.21
2019-01-16T14:46:24.708Z,72.15
2019-01-16T14:48:54.834Z,72.58
2019-01-16T14:51:25.203Z,72.89
2019-01-16T14:53:58.073Z,72.71
2019-01-16T14:56:36.720Z,72.46
2019-01-16T14:59:24.570Z,73.06
2019-01-16T15:02:06.308Z,73.03
2019-01-16T15:04:42.568Z,73.39
2019-01-16T15:07:28.959Z,73.51
2019-01-16T15:10:04.827Z,74.10
2019-01-16T15:12:51.259Z,74.27
2019-01-16T15:15:29.767Z,74.03
2019-01-16T15:18:02.535Z,74.38
2019-01-16T15:20:35.033Z,74.67
2019-01-16T15:23:05.187Z,74.55
2019-01-16T15:25:35.284Z,74.94
2019-01-16T15:28:21.383Z,75.33
2019-01-16T15:30:51.464Z,75.84
2019-01-16T15:33:21.665Z,75.57
2019-01-16T15:36:07.889Z,75.72
2019-01-16T15:38:37.945Z,75.72
2019-01-16T15:41:26.344Z,75.68
2019-01-16T15:43:56.453Z,76.83
2019-01-16T15:46:26.512Z,76.44
2019-01-16T15:48:57.034Z,76.39
2019-01-16T15:51:27.167Z,76.76
2019-01-16T15:54:15.310Z,76.79
2019-01-16T15:56:51.427Z,77.19
2019-01-16T15:59:30.389Z,76.65
2019-01-16T16:02:09.313Z,76.40
2019-01-16T16:04:45.115Z,77.01
2019-01-16T16:07:15.251Z,76.40
2019-01-16T16:09:45.317Z,76.73
2019-01-16T16:12:27.293Z,77.06
2019-01-16T16:15:05.981Z,75.89
2019-01-16T16:17:36.065Z,76.00
2019-01-16T16:20:20.839Z,76.70
2019-01-16T16:23:06.755Z,76.33
2019-01-16T16:25:39.324Z,76.07
2019-01-16T16:28:09.388Z,75.91
2019-01-16T16:30:45.340Z,76.10
2019-01-16T16:33:18.118Z,76.20
2019-01-16T16:35:48.179Z,75.83
2019-01-16T16:38:18.333Z,75.51
2019-01-16T16:41:03.374Z,76.49
2019-01-16T16:43:33.593Z,76.46
2019-01-16T16:46:18.703Z,76.23
2019-01-16T16:48:51.528Z,76.58
2019-01-16T16:51:27.186Z,76.69
2019-01-16T16:54:13.299Z,77.17
2019-01-16T16:56:52.043Z,77.04
2019-01-16T16:59:33.763Z,77.12
2019-01-16T17:02:06.351Z,77.22
2019-01-16T17:04:45.376Z,77.54
2019-01-16T17:07:27.006Z,77.84
2019-01-16T17:09:57.125Z,77.98
2019-01-16T17:12:42.116Z,78.25
2019-01-16T17:15:29.178Z,78.42
2019-01-16T17:18:02.052Z,77.70
2019-01-16T17:20:32.241Z,77.94
2019-01-16T17:23:02.327Z,77.98
2019-01-16T17:25:43.845Z,78.15
2019-01-16T17:28:16.679Z,78.58
2019-01-16T17:30:46.777Z,78.90
2019-01-16T17:33:16.854Z,79.42
2019-01-16T17:35:53.053Z,79.13
2019-01-16T17:38:23.108Z,79.63
2019-01-16T17:40:53.250Z,79.39
2019-01-16T17:43:26.150Z,79.22
2019-01-16T17:46:01.642Z,79.11
2019-01-16T17:48:40.799Z,79.09
2019-01-16T17:51:13.315Z,79.39
2019-01-16T17:53:59.649Z,79.02
2019-01-16T17:56:35.547Z,79.43
2019-01-16T17:59:11.866Z,79.83
2019-01-16T18:01:41.932Z,79.44
2019-01-16T18:04:14.946Z,79.42
2019-01-16T18:06:45.110Z,79.48
2019-01-16T18:09:24.379Z,79.63
2019-01-16T18:11:57.246Z,79.82
2019-01-16T18:14:39.165Z,80.06
2019-01-16T18:17:18.078Z,80.36
2019-01-16T18:20:04.266Z,81.06
2019-01-16T18:22:48.888Z,81.62
2019-01-16T18:25:24.782Z,82.30
2019-01-16T18:28:00.598Z,82.49
2019-01-16T18:30:33.425Z,83.21
2019-01-16T18:33:03.487Z,83.52
2019-01-16T18:35:33.645Z,83.72
2019-01-16T18:38:12.507Z,84.65
2019-01-16T18:41:00.731Z,84.82
2019-01-16T18:43:30.793Z,85.21
2019-01-16T18:46:00.851Z,85.16
2019-01-16T18:48:33.953Z,85.68
2019-01-16T18:51:15.786Z,86.50
2019-01-16T18:53:46.028Z,86.26
2019-01-16T18:56:31.246Z,86.03
2019-01-16T18:59:06.813Z,86.45
2019-01-16T19:01:53.180Z,86.06
2019-01-16T19:04:28.771Z,85.31
2019-01-16T19:07:04.964Z,84.77
2019-01-16T19:09:51.010Z,84.49
2019-01-16T19:12:29.791Z,84.20
2019-01-16T19:14:59.881Z,84.20
2019-01-16T19:17:36.035Z,83.77
2019-01-16T19:20:09.231Z,83.63
2019-01-16T19:22:48.215Z,83.75
2019-01-16T19:25:18.315Z,84.50
2019-01-16T19:27:51.473Z,84.65
2019-01-16T19:30:30.717Z,85.23
2019-01-16T19:33:06.209Z,85.93
2019-01-16T19:35:45.467Z,85.68
2019-01-16T19:38:33.703Z,85.22
2019-01-16T19:41:06.486Z,85.10
2019-01-16T19:43:42.309Z,84.58
2019-01-16T19:46:18.526Z,84.42
2019-01-16T19:49:04.863Z,84.60
2019-01-16T19:51:37.826Z,84.06
2019-01-16T19:54:24.367Z,83.89
2019-01-16T19:56:57.310Z,83.21
2019-01-16T19:59:27.453Z,82.89
2019-01-16T20:02:12.511Z,82.27
2019-01-16T20:04:45.357Z,82.33
2019-01-16T20:07:15.582Z,81.79
2019-01-16T20:09:54.897Z,81.73
2019-01-16T20:12:27.503Z,81.78
2019-01-16T20:15:03.536Z,82.09
2019-01-16T20:17:49.569Z,82.21
2019-01-16T20:20:25.784Z,81.74
2019-01-16T20:22:58.716Z,81.78
2019-01-16T20:25:31.919Z,81.83
2019-01-16T20:28:20.266Z,82.28
2019-01-16T20:31:06.033Z,82.02
2019-01-16T20:33:36.182Z,81.77
2019-01-16T20:36:15.472Z,82.29
2019-01-16T20:38:54.534Z,82.11
2019-01-16T20:41:27.657Z,82.09
2019-01-16T20:44:03.180Z,81.94
2019-01-16T20:46:42.088Z,82.23
2019-01-16T20:49:17.875Z,82.05
2019-01-16T20:51:59.536Z,82.28
2019-01-16T20:54:32.259Z,82.04
2019-01-16T20:57:08.383Z,82.36
2019-01-16T20:59:44.189Z,82.91
2019-01-16T21:02:26.343Z,83.12
2019-01-16T21:05:11.346Z,83.23
2019-01-16T21:07:44.183Z,83.66
2019-01-16T21:10:15.101Z,83.81
2019-01-16T21:12:51.041Z,84.05
2019-01-16T21:15:21.256Z,84.34
2019-01-16T21:18:07.730Z,84.43
2019-01-16T21:20:46.712Z,84.10
2019-01-16T21:23:33.288Z,84.14
2019-01-16T21:26:15.609Z,83.10
2019-01-16T21:28:51.562Z,83.25
2019-01-16T21:31:21.619Z,83.48
2019-01-16T21:34:00.499Z,83.27
2019-01-16T21:36:45.345Z,83.22
2019-01-16T21:39:31.469Z,83.45
2019-01-16T21:42:17.168Z,83.11
2019-01-16T21:44:55.828Z,82.89
2019-01-16T21:47:36.545Z,82.82
2019-01-16T21:50:19.698Z,83.21
2019-01-16T21:52:58.647Z,83.84
2019-01-16T21:55:28.874Z,84.18
2019-01-16T21:58:07.650Z,84.19
2019-01-16T22:00:52.592Z,84.18
2019-01-16T22:03:25.175Z,83.95
2019-01-16T22:05:55.370Z,83.94
2019-01-16T22:08:31.191Z,83.83
2019-01-16T22:11:09.754Z,83.36
2019-01-16T22:13:40.162Z,83.84
2019-01-16T22:16:29.387Z,83.87
2019-01-16T22:18:59.623Z,83.56
2019-01-16T22:21:32.489Z,83.10
2019-01-16T22:24:11.371Z,82.84
2019-01-16T22:26:56.293Z,82.83
2019-01-16T22:29:32.137Z,82.83
2019-01-16T22:32:02.198Z,82.57
2019-01-16T22:34:32.252Z,82.21
2019-01-16T22:37:11.438Z,82.23
2019-01-16T22:39:59.426Z,82.68
2019-01-16T22:42:44.456Z,82.55
2019-01-16T22:45:20.858Z,82.41
2019-01-16T22:47:57.126Z,82.47
2019-01-16T22:50:43.215Z,82.39
2019-01-16T22:53:19.037Z,82.35
2019-01-16T22:56:03.881Z,82.60
2019-01-16T22:58:49.790Z,82.65
2019-01-16T23:01:20.091Z,81.77
2019-01-16T23:03:56.209Z,81.12
2019-01-16T23:06:31.986Z,81.11
2019-01-16T23:09:04.650Z,80.72
2019-01-16T23:11:49.282Z,80.72
2019-01-16T23:14:22.113Z,80.50
2019-01-16T23:16:52.249Z,80.78
2019-01-16T23:19:28.132Z,80.41
2019-01-16T23:22:00.750Z,80.30
2019-01-16T23:24:39.372Z,79.30
2019-01-16T23:27:09.569Z,79.89
2019-01-16T23:29:39.630Z,79.56
2019-01-16T23:32:09.790Z,79.44
2019-01-16T23:34:45.569Z,78.99
2019-01-16T23:37:21.505Z,78.82
2019-01-16T23:40:00.225Z,78.48
2019-01-16T23:42:46.059Z,78.35
2019-01-16T23:45:19.138Z,78.53
2019-01-16T23:48:07.355Z,78.52
2019-01-16T23:50:53.515Z,78.40
2019-01-16T23:53:40.266Z,78.78
2019-01-16T23:56:22.051Z,78.08
2019-01-16T23:58:52.216Z,78.06
